LFKB/BIA METAR and TAF weather

Enter ICAO airport designator
Station Type Date Time Source
LFKB METAR 2019/08/18 10:00 UTC NOAA

LFKB 181000Z AUTO 13010KT 9999 SCT024 BKN031 28/21 Q1016 NOSIG


Station Type Date Time Source
LFKB Decoded METAR 2019/08/18 10:00 UTC NOAA

Station name not available
Aug 18, 2019 - 06:00 AM EDT / 2019.08.18 1000 UTC
Wind: from the SE (130 degrees) at 12 MPH (10 KT):0
Visibility: greater than 7 mile(s):0
Sky conditions: mostly cloudy
Temperature: 82 F (28 C)
Dew Point: 69 F (21 C)
Relative Humidity: 65%
Pressure (altimeter): 30.00 in. Hg (1016 hPa)
ob: LFKB 181000Z AUTO 13010KT 9999 SCT024 BKN031 28/21 Q1016 NOSIG
cycle: 10

Station Type Date Time Source
LFKB TAF 2019/08/18 09:42 UTC NOAA

TAF TAF LFKB 180800Z 1809/1909 12010KT CAVOK TX30/1812Z TN20/1903Z
TEMPO 1809/1815 SCT030
BECMG 1818/1821 24004KT
TEMPO 1900/1905 BKN026

Example: see airport list